AFL771 UUEE-UWGG
Flight info
| Callsign | AFL771 |
|---|---|
| Flight time | 0h 50m |
| Altitude | 35000 |
| Route | KOGOM3H KOGOM L94 USTOK USTOK2P |
| Aircraft | B738/M-SDE2E3FGHIRWXY/LB1 |
Departure
| Time | 2026-05-05 17:15 |
|---|---|
| Airport | Sheremetyevo International Airport (UUEE) |
Arrival
| Time | 2026-05-05 18:06 |
|---|---|
| Airport | Nizhny Novgorod / Strigino International Airport (UWGG) |
| Time | Latitude | Longitude | Altitude | Speed | Heading |
|---|---|---|---|---|---|
| 2026-05-05 16:42 | 55.97710 | 37.41114 | 638 ft | 0 kts | 355° |
| 2026-05-05 17:03 | 55.97703 | 37.41116 | 641 ft | 4 kts | 356° |
| 2026-05-05 17:03 | 55.97676 | 37.41116 | 639 ft | 4 kts | 6° |
| 2026-05-05 17:04 | 55.97650 | 37.41107 | 638 ft | 4 kts | 20° |
| 2026-05-05 17:04 | 55.97626 | 37.41086 | 639 ft | 4 kts | 38° |
| 2026-05-05 17:04 | 55.97608 | 37.41052 | 642 ft | 4 kts | 63° |
| 2026-05-05 17:04 | 55.97603 | 37.41029 | 640 ft | 0 kts | 75° |
| 2026-05-05 17:07 | 55.97605 | 37.41041 | 642 ft | 3 kts | 75° |
| 2026-05-05 17:07 | 55.97601 | 37.41115 | 638 ft | 9 kts | 121° |
| 2026-05-05 17:08 | 55.97544 | 37.41209 | 645 ft | 13 kts | 104° |
| 2026-05-05 17:08 | 55.97562 | 37.41362 | 643 ft | 13 kts | 74° |
| 2026-05-05 17:08 | 55.97584 | 37.41511 | 640 ft | 12 kts | 75° |
| 2026-05-05 17:08 | 55.97606 | 37.41657 | 645 ft | 12 kts | 76° |
| 2026-05-05 17:09 | 55.97626 | 37.41799 | 641 ft | 12 kts | 76° |
| 2026-05-05 17:09 | 55.97648 | 37.41936 | 646 ft | 11 kts | 75° |
| 2026-05-05 17:09 | 55.97668 | 37.42070 | 640 ft | 11 kts | 75° |
| 2026-05-05 17:09 | 55.97689 | 37.42200 | 638 ft | 11 kts | 73° |
| 2026-05-05 17:10 | 55.97707 | 37.42329 | 642 ft | 11 kts | 77° |
| 2026-05-05 17:10 | 55.97726 | 37.42467 | 641 ft | 12 kts | 75° |
| 2026-05-05 17:10 | 55.97749 | 37.42614 | 644 ft | 13 kts | 75° |
| 2026-05-05 17:10 | 55.97772 | 37.42769 | 640 ft | 13 kts | 76° |
| 2026-05-05 17:11 | 55.97795 | 37.42922 | 642 ft | 13 kts | 75° |
| 2026-05-05 17:11 | 55.97818 | 37.43081 | 638 ft | 13 kts | 75° |
| 2026-05-05 17:11 | 55.97842 | 37.43244 | 641 ft | 13 kts | 76° |
| 2026-05-05 17:11 | 55.97865 | 37.43401 | 643 ft | 13 kts | 75° |
| 2026-05-05 17:12 | 55.97890 | 37.43553 | 638 ft | 13 kts | 74° |
| 2026-05-05 17:12 | 55.97912 | 37.43702 | 640 ft | 12 kts | 76° |
| 2026-05-05 17:12 | 55.97933 | 37.43846 | 638 ft | 12 kts | 75° |
| 2026-05-05 17:12 | 55.97944 | 37.43988 | 638 ft | 12 kts | 110° |
| 2026-05-05 17:13 | 55.97878 | 37.44057 | 638 ft | 11 kts | 168° |
| 2026-05-05 17:13 | 55.97808 | 37.44089 | 639 ft | 6 kts | 165° |
| 2026-05-05 17:13 | 55.97785 | 37.44077 | 639 ft | 1 kts | 255° |
| 2026-05-05 17:13 | 55.97785 | 37.44076 | 639 ft | 0 kts | 256° |
| 2026-05-05 17:14 | 55.97784 | 37.44070 | 639 ft | 9 kts | 255° |
| 2026-05-05 17:15 | 55.97703 | 37.43489 | 642 ft | 87 kts | 255° |
| 2026-05-05 17:15 | 55.97486 | 37.42046 | 642 ft | 151 kts | 255° |
| 2026-05-05 17:15 | 55.97190 | 37.40097 | 1112 ft | 167 kts | 254° |
| 2026-05-05 17:15 | 55.96873 | 37.38098 | 1922 ft | 166 kts | 256° |
| 2026-05-05 17:16 | 55.96557 | 37.36117 | 2735 ft | 165 kts | 256° |
| 2026-05-05 17:16 | 55.96251 | 37.34130 | 3500 ft | 165 kts | 256° |
| 2026-05-05 17:16 | 55.95949 | 37.32150 | 4283 ft | 166 kts | 255° |
| 2026-05-05 17:16 | 55.95647 | 37.30189 | 5003 ft | 170 kts | 254° |
| 2026-05-05 17:17 | 55.95316 | 37.28078 | 5485 ft | 180 kts | 253° |
| 2026-05-05 17:17 | 55.94972 | 37.25884 | 5942 ft | 188 kts | 253° |
| 2026-05-05 17:17 | 55.94609 | 37.23579 | 6322 ft | 197 kts | 253° |
| 2026-05-05 17:17 | 55.94229 | 37.21165 | 6707 ft | 206 kts | 253° |
| 2026-05-05 17:18 | 55.93832 | 37.18648 | 7073 ft | 216 kts | 253° |
| 2026-05-05 17:18 | 55.93413 | 37.15992 | 7423 ft | 228 kts | 253° |
| 2026-05-05 17:18 | 55.92969 | 37.13189 | 7796 ft | 244 kts | 253° |
| 2026-05-05 17:18 | 55.92496 | 37.10212 | 8456 ft | 253 kts | 254° |
| 2026-05-05 17:19 | 55.92013 | 37.07180 | 9368 ft | 254 kts | 254° |
| 2026-05-05 17:19 | 55.91685 | 37.04079 | 10228 ft | 258 kts | 270° |
| 2026-05-05 17:19 | 55.92097 | 37.00926 | 11064 ft | 267 kts | 290° |
| 2026-05-05 17:19 | 55.93111 | 36.98124 | 11759 ft | 285 kts | 308° |
| 2026-05-05 17:20 | 55.94740 | 36.95818 | 12187 ft | 309 kts | 320° |
| 2026-05-05 17:20 | 55.96544 | 36.93660 | 12577 ft | 316 kts | 323° |
| 2026-05-05 17:20 | 55.98642 | 36.92326 | 12948 ft | 330 kts | 347° |
| 2026-05-05 17:20 | 56.00965 | 36.92593 | 13353 ft | 344 kts | 9° |
| 2026-05-05 17:21 | 56.03172 | 36.94421 | 13752 ft | 354 kts | 28° |
| 2026-05-05 17:21 | 56.05226 | 36.96875 | 14116 ft | 357 kts | 30° |
| 2026-05-05 17:21 | 56.07286 | 36.99379 | 14471 ft | 358 kts | 30° |
| 2026-05-05 17:22 | 56.11284 | 37.04751 | 15176 ft | 367 kts | 49° |
| 2026-05-05 17:22 | 56.12535 | 37.08816 | 15586 ft | 383 kts | 71° |
| 2026-05-05 17:22 | 56.13227 | 37.13528 | 16012 ft | 399 kts | 76° |
| 2026-05-05 17:22 | 56.13876 | 37.18476 | 16424 ft | 413 kts | 76° |
| 2026-05-05 17:23 | 56.14463 | 37.23562 | 17070 ft | 421 kts | 85° |
| 2026-05-05 17:23 | 56.14216 | 37.28770 | 17850 ft | 421 kts | 107° |
| 2026-05-05 17:23 | 56.13029 | 37.33532 | 18593 ft | 417 kts | 127° |
| 2026-05-05 17:23 | 56.11134 | 37.37419 | 19273 ft | 414 kts | 143° |
| 2026-05-05 17:24 | 56.08743 | 37.40103 | 19875 ft | 411 kts | 159° |
| 2026-05-05 17:24 | 56.06133 | 37.42228 | 20493 ft | 414 kts | 160° |
| 2026-05-05 17:24 | 56.03486 | 37.44340 | 21094 ft | 419 kts | 160° |
| 2026-05-05 17:24 | 56.00791 | 37.46548 | 21709 ft | 423 kts | 159° |
| 2026-05-05 17:25 | 55.98144 | 37.48770 | 22295 ft | 428 kts | 157° |
| 2026-05-05 17:25 | 55.96420 | 37.50672 | 22659 ft | 437 kts | 144° |
| 2026-05-05 17:25 | 55.93870 | 37.56329 | 23431 ft | 451 kts | 119° |
| 2026-05-05 17:25 | 55.92881 | 37.61663 | 23925 ft | 457 kts | 102° |
| 2026-05-05 17:26 | 55.92334 | 37.67271 | 24408 ft | 460 kts | 100° |
| 2026-05-05 17:26 | 55.91772 | 37.72885 | 24975 ft | 459 kts | 104° |
| 2026-05-05 17:26 | 55.90639 | 37.78184 | 25427 ft | 459 kts | 121° |
| 2026-05-05 17:26 | 55.89044 | 37.83124 | 25878 ft | 462 kts | 122° |
| 2026-05-05 17:27 | 55.87402 | 37.88079 | 26299 ft | 465 kts | 122° |
| 2026-05-05 17:27 | 55.85778 | 37.93063 | 26885 ft | 464 kts | 122° |
| 2026-05-05 17:27 | 55.84194 | 37.98040 | 27546 ft | 461 kts | 121° |
| 2026-05-05 17:27 | 55.82633 | 38.03013 | 28228 ft | 459 kts | 121° |
| 2026-05-05 17:28 | 55.81084 | 38.07957 | 28896 ft | 456 kts | 120° |
| 2026-05-05 17:28 | 55.79869 | 38.13179 | 29428 ft | 460 kts | 104° |
| 2026-05-05 17:28 | 55.79562 | 38.18817 | 29975 ft | 459 kts | 88° |
| 2026-05-05 17:28 | 55.79734 | 38.24397 | 30537 ft | 456 kts | 85° |
| 2026-05-05 17:29 | 55.79936 | 38.30010 | 31052 ft | 456 kts | 86° |
| 2026-05-05 17:29 | 55.80095 | 38.35671 | 31415 ft | 458 kts | 88° |
| 2026-05-05 17:29 | 55.80278 | 38.41335 | 31831 ft | 459 kts | 81° |
| 2026-05-05 17:29 | 55.81089 | 38.46789 | 32339 ft | 455 kts | 70° |
| 2026-05-05 17:30 | 55.82111 | 38.52099 | 32905 ft | 452 kts | 70° |
| 2026-05-05 17:30 | 55.83132 | 38.57395 | 33365 ft | 452 kts | 70° |
| 2026-05-05 17:30 | 55.84120 | 38.62720 | 33786 ft | 453 kts | 71° |
| 2026-05-05 17:30 | 55.85078 | 38.68064 | 34170 ft | 452 kts | 71° |
| 2026-05-05 17:31 | 55.86073 | 38.73416 | 34254 ft | 460 kts | 68° |
| 2026-05-05 17:31 | 55.88815 | 38.83879 | 34394 ft | 473 kts | 62° |
| 2026-05-05 17:32 | 55.91781 | 38.94442 | 34509 ft | 487 kts | 63° |
| 2026-05-05 17:32 | 55.94719 | 39.05475 | 34666 ft | 497 kts | 63° |
| 2026-05-05 17:32 | 55.96134 | 39.11125 | 34783 ft | 500 kts | 69° |
| 2026-05-05 17:33 | 55.96879 | 39.17176 | 34805 ft | 499 kts | 84° |
| 2026-05-05 17:33 | 55.97416 | 39.29483 | 34824 ft | 495 kts | 86° |
| 2026-05-05 17:34 | 55.97984 | 39.41724 | 34827 ft | 494 kts | 85° |
| 2026-05-05 17:34 | 55.98631 | 39.53932 | 34833 ft | 493 kts | 85° |
| 2026-05-05 17:35 | 55.99375 | 39.66131 | 34827 ft | 495 kts | 77° |
| 2026-05-05 17:35 | 56.00568 | 39.71786 | 34849 ft | 493 kts | 60° |
| 2026-05-05 17:35 | 56.02244 | 39.77123 | 34844 ft | 493 kts | 59° |
| 2026-05-05 17:36 | 56.05558 | 39.87901 | 34837 ft | 496 kts | 60° |
| 2026-05-05 17:36 | 56.08770 | 39.98853 | 34835 ft | 497 kts | 61° |
| 2026-05-05 17:37 | 56.11963 | 40.09846 | 34830 ft | 497 kts | 61° |
| 2026-05-05 17:37 | 56.15162 | 40.20863 | 34831 ft | 499 kts | 61° |
| 2026-05-05 17:37 | 56.16754 | 40.26351 | 34199 ft | 502 kts | 61° |
| 2026-05-05 17:38 | 56.18351 | 40.31874 | 33568 ft | 496 kts | 62° |
| 2026-05-05 17:38 | 56.19932 | 40.37357 | 32916 ft | 492 kts | 61° |
| 2026-05-05 17:38 | 56.21498 | 40.42789 | 32276 ft | 488 kts | 61° |
| 2026-05-05 17:38 | 56.23050 | 40.48187 | 31648 ft | 484 kts | 61° |
| 2026-05-05 17:39 | 56.24537 | 40.53607 | 31030 ft | 481 kts | 66° |
| 2026-05-05 17:39 | 56.25557 | 40.59322 | 30429 ft | 479 kts | 77° |
| 2026-05-05 17:39 | 56.26071 | 40.65224 | 29834 ft | 476 kts | 85° |
| 2026-05-05 17:39 | 56.26083 | 40.71150 | 29168 ft | 472 kts | 95° |
| 2026-05-05 17:40 | 56.25831 | 40.77024 | 28511 ft | 468 kts | 96° |
| 2026-05-05 17:40 | 56.25549 | 40.82837 | 27858 ft | 465 kts | 96° |
| 2026-05-05 17:40 | 56.25268 | 40.88609 | 27219 ft | 462 kts | 96° |
| 2026-05-05 17:40 | 56.25000 | 40.94277 | 26605 ft | 458 kts | 96° |
| 2026-05-05 17:41 | 56.24741 | 40.99973 | 25995 ft | 455 kts | 96° |
| 2026-05-05 17:41 | 56.24491 | 41.05624 | 25381 ft | 452 kts | 95° |
| 2026-05-05 17:41 | 56.24246 | 41.11245 | 24814 ft | 449 kts | 95° |
| 2026-05-05 17:41 | 56.24002 | 41.16815 | 24256 ft | 445 kts | 96° |
| 2026-05-05 17:42 | 56.23759 | 41.22339 | 23746 ft | 440 kts | 96° |
| 2026-05-05 17:42 | 56.23516 | 41.27807 | 23202 ft | 436 kts | 96° |
| 2026-05-05 17:42 | 56.23355 | 41.31393 | 22804 ft | 434 kts | 96° |
| 2026-05-05 17:42 | 56.23110 | 41.36781 | 22212 ft | 430 kts | 96° |
| 2026-05-05 17:43 | 56.22866 | 41.42110 | 21631 ft | 426 kts | 96° |
| 2026-05-05 17:43 | 56.22620 | 41.47403 | 21060 ft | 423 kts | 96° |
| 2026-05-05 17:43 | 56.22375 | 41.52643 | 20508 ft | 419 kts | 96° |
| 2026-05-05 17:43 | 56.22128 | 41.57856 | 19982 ft | 415 kts | 96° |
| 2026-05-05 17:44 | 56.21883 | 41.62999 | 19491 ft | 411 kts | 96° |
| 2026-05-05 17:44 | 56.21638 | 41.68094 | 19018 ft | 408 kts | 96° |
| 2026-05-05 17:44 | 56.21393 | 41.73156 | 18544 ft | 404 kts | 96° |
| 2026-05-05 17:44 | 56.21151 | 41.78114 | 18076 ft | 401 kts | 96° |
| 2026-05-05 17:45 | 56.20906 | 41.83088 | 17541 ft | 398 kts | 96° |
| 2026-05-05 17:45 | 56.20661 | 41.88017 | 17055 ft | 394 kts | 96° |
| 2026-05-05 17:45 | 56.20417 | 41.92901 | 16635 ft | 388 kts | 96° |
| 2026-05-05 17:45 | 56.20175 | 41.97701 | 16244 ft | 382 kts | 96° |
| 2026-05-05 17:46 | 56.19936 | 42.02424 | 15863 ft | 377 kts | 96° |
| 2026-05-05 17:46 | 56.19697 | 42.07090 | 15481 ft | 372 kts | 96° |
| 2026-05-05 17:46 | 56.19460 | 42.11689 | 15103 ft | 368 kts | 96° |
| 2026-05-05 17:46 | 56.19221 | 42.16234 | 14741 ft | 364 kts | 96° |
| 2026-05-05 17:47 | 56.18982 | 42.20727 | 14375 ft | 360 kts | 96° |
| 2026-05-05 17:47 | 56.18744 | 42.25178 | 14015 ft | 356 kts | 96° |
| 2026-05-05 17:47 | 56.18507 | 42.29591 | 13659 ft | 353 kts | 96° |
| 2026-05-05 17:47 | 56.18271 | 42.33956 | 13261 ft | 350 kts | 96° |
| 2026-05-05 17:48 | 56.18036 | 42.38284 | 12869 ft | 347 kts | 96° |
| 2026-05-05 17:48 | 56.17802 | 42.42575 | 12481 ft | 344 kts | 97° |
| 2026-05-05 17:48 | 56.17567 | 42.46833 | 12094 ft | 341 kts | 97° |
| 2026-05-05 17:48 | 56.17333 | 42.51059 | 11712 ft | 339 kts | 97° |
| 2026-05-05 17:49 | 56.17100 | 42.55252 | 11328 ft | 336 kts | 97° |
| 2026-05-05 17:49 | 56.16866 | 42.59423 | 10960 ft | 334 kts | 97° |
| 2026-05-05 17:49 | 56.16633 | 42.63547 | 10588 ft | 331 kts | 97° |
| 2026-05-05 17:49 | 56.16401 | 42.67644 | 10218 ft | 329 kts | 97° |
| 2026-05-05 17:50 | 56.16172 | 42.71663 | 9868 ft | 327 kts | 98° |
| 2026-05-05 17:50 | 56.15940 | 42.75703 | 9489 ft | 325 kts | 98° |
| 2026-05-05 17:50 | 56.15708 | 42.79722 | 9096 ft | 323 kts | 98° |
| 2026-05-05 17:50 | 56.15475 | 42.83718 | 8710 ft | 321 kts | 98° |
| 2026-05-05 17:51 | 56.15243 | 42.87692 | 8329 ft | 319 kts | 98° |
| 2026-05-05 17:51 | 56.15011 | 42.91641 | 7955 ft | 318 kts | 98° |
| 2026-05-05 17:51 | 56.14779 | 42.95573 | 7589 ft | 317 kts | 98° |
| 2026-05-05 17:51 | 56.14546 | 42.99504 | 7202 ft | 315 kts | 97° |
| 2026-05-05 17:52 | 56.14313 | 43.03404 | 6879 ft | 313 kts | 97° |
| 2026-05-05 17:52 | 56.14090 | 43.07162 | 6828 ft | 300 kts | 98° |
| 2026-05-05 17:52 | 56.13869 | 43.10852 | 6803 ft | 287 kts | 98° |
| 2026-05-05 17:52 | 56.13661 | 43.14288 | 6800 ft | 274 kts | 98° |
| 2026-05-05 17:53 | 56.13458 | 43.17613 | 6802 ft | 262 kts | 98° |
| 2026-05-05 17:53 | 56.13188 | 43.20753 | 6798 ft | 247 kts | 113° |
| 2026-05-05 17:53 | 56.12310 | 43.23184 | 6827 ft | 223 kts | 139° |
| 2026-05-05 17:53 | 56.11207 | 43.25028 | 6706 ft | 217 kts | 145° |
| 2026-05-05 17:54 | 56.10053 | 43.26775 | 6484 ft | 215 kts | 146° |
| 2026-05-05 17:54 | 56.08926 | 43.28472 | 6293 ft | 208 kts | 146° |
| 2026-05-05 17:54 | 56.07826 | 43.30132 | 6099 ft | 207 kts | 146° |
| 2026-05-05 17:54 | 56.06722 | 43.31804 | 5901 ft | 209 kts | 146° |
| 2026-05-05 17:55 | 56.05609 | 43.33496 | 5704 ft | 210 kts | 145° |
| 2026-05-05 17:55 | 56.04519 | 43.35164 | 5511 ft | 202 kts | 145° |
| 2026-05-05 17:55 | 56.03486 | 43.36748 | 5294 ft | 195 kts | 145° |
| 2026-05-05 17:55 | 56.02465 | 43.38309 | 5106 ft | 193 kts | 145° |
| 2026-05-05 17:56 | 56.01424 | 43.39898 | 5035 ft | 196 kts | 144° |
| 2026-05-05 17:56 | 56.00399 | 43.41463 | 4999 ft | 196 kts | 144° |
| 2026-05-05 17:56 | 55.99367 | 43.43040 | 5001 ft | 195 kts | 144° |
| 2026-05-05 17:56 | 55.98446 | 43.44835 | 4969 ft | 201 kts | 117° |
| 2026-05-05 17:57 | 55.98099 | 43.47259 | 5016 ft | 205 kts | 104° |
| 2026-05-05 17:57 | 55.97798 | 43.49770 | 5002 ft | 207 kts | 104° |
| 2026-05-05 17:57 | 55.97493 | 43.52291 | 5002 ft | 208 kts | 104° |
| 2026-05-05 17:57 | 55.97183 | 43.54818 | 4982 ft | 208 kts | 104° |
| 2026-05-05 17:58 | 55.96872 | 43.57338 | 4986 ft | 207 kts | 104° |
| 2026-05-05 17:58 | 55.96561 | 43.59846 | 4987 ft | 205 kts | 104° |
| 2026-05-05 17:58 | 55.96262 | 43.62252 | 4970 ft | 192 kts | 104° |
| 2026-05-05 17:58 | 55.95984 | 43.64483 | 4987 ft | 184 kts | 105° |
| 2026-05-05 17:59 | 55.95895 | 43.66760 | 4965 ft | 185 kts | 72° |
| 2026-05-05 17:59 | 55.96627 | 43.68505 | 5002 ft | 175 kts | 22° |
| 2026-05-05 17:59 | 55.97754 | 43.69133 | 4972 ft | 169 kts | 6° |
| 2026-05-05 17:59 | 55.98911 | 43.69599 | 4761 ft | 169 kts | 6° |
| 2026-05-05 18:00 | 56.00053 | 43.70055 | 4519 ft | 166 kts | 6° |
| 2026-05-05 18:00 | 56.01168 | 43.70501 | 4299 ft | 163 kts | 6° |
| 2026-05-05 18:00 | 56.02271 | 43.70962 | 4100 ft | 163 kts | 7° |
| 2026-05-05 18:00 | 56.03375 | 43.71397 | 3883 ft | 162 kts | 6° |
| 2026-05-05 18:01 | 56.04460 | 43.71800 | 3670 ft | 160 kts | 6° |
| 2026-05-05 18:01 | 56.05548 | 43.72199 | 3464 ft | 159 kts | 5° |
| 2026-05-05 18:01 | 56.06629 | 43.72595 | 3279 ft | 156 kts | 5° |
| 2026-05-05 18:01 | 56.07693 | 43.72985 | 3046 ft | 156 kts | 5° |
| 2026-05-05 18:02 | 56.08751 | 43.73372 | 2835 ft | 154 kts | 5° |
| 2026-05-05 18:02 | 56.09801 | 43.73757 | 2634 ft | 154 kts | 6° |
| 2026-05-05 18:02 | 56.10846 | 43.74140 | 2428 ft | 152 kts | 6° |
| 2026-05-05 18:02 | 56.11877 | 43.74518 | 2223 ft | 150 kts | 6° |
| 2026-05-05 18:03 | 56.12900 | 43.74894 | 2023 ft | 149 kts | 5° |
| 2026-05-05 18:03 | 56.13904 | 43.75261 | 1838 ft | 149 kts | 5° |
| 2026-05-05 18:03 | 56.14924 | 43.75634 | 1643 ft | 150 kts | 5° |
| 2026-05-05 18:03 | 56.15945 | 43.76008 | 1430 ft | 149 kts | 6° |
| 2026-05-05 18:04 | 56.16957 | 43.76378 | 1230 ft | 150 kts | 7° |
| 2026-05-05 18:04 | 56.17989 | 43.76757 | 1023 ft | 152 kts | 9° |
| 2026-05-05 18:04 | 56.19030 | 43.77138 | 843 ft | 152 kts | 10° |
| 2026-05-05 18:04 | 56.20066 | 43.77518 | 622 ft | 149 kts | 10° |
| 2026-05-05 18:05 | 56.21069 | 43.77884 | 383 ft | 145 kts | 11° |
| 2026-05-05 18:05 | 56.22034 | 43.78236 | 267 ft | 134 kts | 11° |
| 2026-05-05 18:05 | 56.22744 | 43.78496 | 265 ft | 76 kts | 11° |
| 2026-05-05 18:05 | 56.23134 | 43.78633 | 268 ft | 52 kts | 12° |
| 2026-05-05 18:06 | 56.23476 | 43.78758 | 264 ft | 48 kts | 11° |
| 2026-05-05 18:06 | 56.23690 | 43.78837 | 264 ft | 46 kts | 12° |
| 2026-05-05 18:06 | 56.24055 | 43.78971 | 267 ft | 25 kts | 12° |
| 2026-05-05 18:06 | 56.24101 | 43.79127 | 265 ft | 17 kts | 117° |
| 2026-05-05 18:07 | 56.24022 | 43.79263 | 265 ft | 16 kts | 166° |
| 2026-05-05 18:07 | 56.23913 | 43.79264 | 265 ft | 15 kts | 182° |
| 2026-05-05 18:07 | 56.23808 | 43.79256 | 265 ft | 15 kts | 182° |
| 2026-05-05 18:07 | 56.23709 | 43.79248 | 265 ft | 14 kts | 181° |
| 2026-05-05 18:08 | 56.23602 | 43.79239 | 265 ft | 17 kts | 182° |
| 2026-05-05 18:08 | 56.23468 | 43.79219 | 265 ft | 21 kts | 190° |
| 2026-05-05 18:08 | 56.23317 | 43.79164 | 265 ft | 22 kts | 191° |
| 2026-05-05 18:08 | 56.23168 | 43.79110 | 265 ft | 22 kts | 191° |
| 2026-05-05 18:09 | 56.23023 | 43.79055 | 265 ft | 21 kts | 192° |
| 2026-05-05 18:09 | 56.22882 | 43.79004 | 265 ft | 20 kts | 191° |
| 2026-05-05 18:09 | 56.22745 | 43.78954 | 265 ft | 20 kts | 192° |
| 2026-05-05 18:09 | 56.22614 | 43.78906 | 265 ft | 19 kts | 191° |
| 2026-05-05 18:10 | 56.22485 | 43.78859 | 265 ft | 18 kts | 190° |
| 2026-05-05 18:10 | 56.22407 | 43.78805 | 265 ft | 11 kts | 191° |
| 2026-05-05 18:10 | 56.22356 | 43.78793 | 265 ft | 7 kts | 173° |
| 2026-05-05 18:10 | 56.22314 | 43.78834 | 265 ft | 7 kts | 148° |
| 2026-05-05 18:11 | 56.22283 | 43.78870 | 265 ft | 0 kts | 146° |